Hyundai Singapore — 5BZP3 — position and weather

sailwx.info

Track history (hours):
 
Tides and Currents Weather Stations Pressure Air Temp Water Temp Dewpoint Dewpoint Depression Visibility Wind Speed Wind Dir Waves Ship Positions

Hyundai Singapore

Last reported at 2018-Jun-18 09:23 UTC. Time now 2018-Jun-18 17:36 UTC.
Position N 22°29' E 119°53'.

Length 314 m; draft 10.7 m.

Type: Cargo ship. MMSI: 212351000.

Date/timePositionNaut miles runAvg speedWind from/ knotsBaromVisibWave heightAir tempDewpointWater temp
2018-Jun-18 09:23N 22°29' E 119°53'514.0
2018-Jun-18 09:00N 22°31' E 119°59'713.1
2018-Jun-18 08:30N 22°32' E 120°06'612.6
2018-Jun-18 08:00N 22°33' E 120°12'612.2
2018-Jun-18 07:29N 22°33' E 120°19'1 1.8
2018-Jun-18 07:00N 22°34' E 120°19'0 0.0
2018-Jun-18 05:51N 22°34' E 120°19'0 0.0
2018-Jun-18 05:21N 22°34' E 120°19'0 0.0
2018-Jun-18 04:57N 22°34' E 120°19'0 0.0
2018-Jun-18 04:21N 22°34' E 120°19'0 0.0
2018-Jun-18 03:57N 22°34' E 120°19'0 0.0
2018-Jun-18 03:27N 22°34' E 120°19'0 0.0
2018-Jun-18 02:57N 22°34' E 120°19'0 0.0
2018-Jun-18 02:21N 22°34' E 120°19'0 0.0
2018-Jun-18 01:57N 22°34' E 120°19'0 0.0
2018-Jun-18 01:27N 22°34' E 120°19'0 0.0
2018-Jun-18 00:51N 22°34' E 120°19'0 0.0
2018-Jun-18 00:09N 22°34' E 120°19'0 0.0
2018-Jun-17 23:51N 22°34' E 120°19'0 0.0
2018-Jun-17 23:21N 22°34' E 120°19'0 0.0
2018-Jun-17 22:57N 22°34' E 120°19'0 0.0
2018-Jun-17 22:27N 22°34' E 120°19'0 0.0
2018-Jun-17 21:57N 22°34' E 120°19'0 0.0
2018-Jun-17 21:27N 22°34' E 120°19'0 0.0
2018-Jun-17 20:51N 22°34' E 120°19'0 0.0
2018-Jun-17 20:21N 22°34' E 120°19'0 0.0
2018-Jun-17 19:51N 22°34' E 120°19'0 0.0
2018-Jun-17 19:27N 22°34' E 120°19'0 0.0
2018-Jun-17 18:57N 22°34' E 120°19'0 0.0
2018-Jun-17 18:27N 22°34' E 120°19'0 0.0
2018-Jun-17 17:45N 22°34' E 120°19'0 0.0
2018-Jun-17 17:21N 22°34' E 120°19'0 0.0
2018-Jun-17 16:51N 22°34' E 120°19'0 0.0
2018-Jun-17 16:15N 22°34' E 120°19'0 0.0
2018-Jun-17 15:51N 22°34' E 120°19'0 0.0
2018-Jun-17 15:27N 22°34' E 120°19'0 0.0
2018-Jun-17 14:57N 22°34' E 120°19'0 0.0
2018-Jun-17 14:27N 22°34' E 120°19'1 1.6
2018-Jun-17 14:00N 22°33' E 120°19'3 5.3
2018-Jun-17 13:30N 22°33' E 120°17'1 2.8
2018-Jun-17 13:00N 22°32' E 120°15'4 7.2
2018-Jun-17 12:30N 22°34' E 120°11'815.3
2018-Jun-17 12:01N 22°40' E 120°07'816.5
2018-Jun-17 11:31N 22°46' E 120°01'815.8
2018-Jun-17 11:01N 22°52' E 119°55'  
2018-Jun-15 04:16N 34°55' E 128°49'20 1.1
2018-Jun-14 10:37N 34°58' E 129°13'619.2
2018-Jun-14 10:19N 35°00' E 129°19'  
Track history (hours):
 
Tides and Currents Weather Stations Pressure Air Temp Water Temp Dewpoint Dewpoint Depression Visibility Wind Speed Wind Dir Waves Ship Positions

Hyundai Singapore

Last reported at 2018-Jun-18 09:23 UTC. Time now 2018-Jun-18 17:36 UTC.
Position N 22°29' E 119°53'.

Length 314 m; draft 10.7 m.

Type: Cargo ship. MMSI: 212351000.

Date/timePositionNaut miles runAvg speedWind from/ knotsBaromVisibWave heightAir tempDewpointWater temp
2018-Jun-18 09:23N 22°29' E 119°53'514.0
2018-Jun-18 09:00N 22°31' E 119°59'713.1
2018-Jun-18 08:30N 22°32' E 120°06'612.6
2018-Jun-18 08:00N 22°33' E 120°12'612.2
2018-Jun-18 07:29N 22°33' E 120°19'1 1.8
2018-Jun-18 07:00N 22°34' E 120°19'0 0.0
2018-Jun-18 05:51N 22°34' E 120°19'0 0.0
2018-Jun-18 05:21N 22°34' E 120°19'0 0.0
2018-Jun-18 04:57N 22°34' E 120°19'0 0.0
2018-Jun-18 04:21N 22°34' E 120°19'0 0.0
2018-Jun-18 03:57N 22°34' E 120°19'0 0.0
2018-Jun-18 03:27N 22°34' E 120°19'0 0.0
2018-Jun-18 02:57N 22°34' E 120°19'0 0.0
2018-Jun-18 02:21N 22°34' E 120°19'0 0.0
2018-Jun-18 01:57N 22°34' E 120°19'0 0.0
2018-Jun-18 01:27N 22°34' E 120°19'0 0.0
2018-Jun-18 00:51N 22°34' E 120°19'0 0.0
2018-Jun-18 00:09N 22°34' E 120°19'0 0.0
2018-Jun-17 23:51N 22°34' E 120°19'0 0.0
2018-Jun-17 23:21N 22°34' E 120°19'0 0.0
2018-Jun-17 22:57N 22°34' E 120°19'0 0.0
2018-Jun-17 22:27N 22°34' E 120°19'0 0.0
2018-Jun-17 21:57N 22°34' E 120°19'0 0.0
2018-Jun-17 21:27N 22°34' E 120°19'0 0.0
2018-Jun-17 20:51N 22°34' E 120°19'0 0.0
2018-Jun-17 20:21N 22°34' E 120°19'0 0.0
2018-Jun-17 19:51N 22°34' E 120°19'0 0.0
2018-Jun-17 19:27N 22°34' E 120°19'0 0.0
2018-Jun-17 18:57N 22°34' E 120°19'0 0.0
2018-Jun-17 18:27N 22°34' E 120°19'0 0.0
2018-Jun-17 17:45N 22°34' E 120°19'0 0.0
2018-Jun-17 17:21N 22°34' E 120°19'0 0.0
2018-Jun-17 16:51N 22°34' E 120°19'0 0.0
2018-Jun-17 16:15N 22°34' E 120°19'0 0.0
2018-Jun-17 15:51N 22°34' E 120°19'0 0.0
2018-Jun-17 15:27N 22°34' E 120°19'0 0.0
2018-Jun-17 14:57N 22°34' E 120°19'0 0.0
2018-Jun-17 14:27N 22°34' E 120°19'1 1.6
2018-Jun-17 14:00N 22°33' E 120°19'3 5.3
2018-Jun-17 13:30N 22°33' E 120°17'1 2.8
2018-Jun-17 13:00N 22°32' E 120°15'4 7.2
2018-Jun-17 12:30N 22°34' E 120°11'815.3
2018-Jun-17 12:01N 22°40' E 120°07'816.5
2018-Jun-17 11:31N 22°46' E 120°01'815.8
2018-Jun-17 11:01N 22°52' E 119°55'  
2018-Jun-15 04:16N 34°55' E 128°49'20 1.1
2018-Jun-14 10:37N 34°58' E 129°13'619.2
2018-Jun-14 10:19N 35°00' E 129°19'  

Dump ship's entire track history